createdAt,value
2023-04-29T00:00:39.982Z,8.40
2023-04-29T00:03:44.777Z,8.63
2023-04-29T00:06:47.988Z,8.60
2023-04-29T00:09:51.285Z,8.87
2023-04-29T00:12:54.530Z,10.20
2023-04-29T00:15:57.597Z,10.07
2023-04-29T00:19:02.211Z,8.97
2023-04-29T00:22:05.280Z,9.30
2023-04-29T00:25:09.992Z,9.37
2023-04-29T00:28:13.178Z,8.30
2023-04-29T00:31:17.335Z,8.50
2023-04-29T00:34:21.786Z,9.70
2023-04-29T00:37:24.878Z,8.47
2023-04-29T00:40:29.313Z,8.73
2023-04-29T00:43:32.944Z,9.67
2023-04-29T00:46:36.187Z,9.80
2023-04-29T00:49:41.466Z,9.60
2023-04-29T00:52:45.931Z,9.47
2023-04-29T00:55:51.525Z,9.87
2023-04-29T00:58:58.517Z,9.07
2023-04-29T01:02:03.210Z,10.03
2023-04-29T01:05:08.060Z,9.97
2023-04-29T01:08:24.038Z,9.20
2023-04-29T01:11:35.953Z,9.80
2023-04-29T01:14:43.942Z,10.37
2023-04-29T01:17:57.339Z,9.77
2023-04-29T01:21:01.990Z,10.07
2023-04-29T01:24:06.862Z,9.63
2023-04-29T01:27:23.524Z,11.00
2023-04-29T01:30:39.798Z,11.37
2023-04-29T01:33:59.691Z,11.70
2023-04-29T01:37:11.353Z,11.00
2023-04-29T01:40:20.820Z,9.77
2023-04-29T01:43:26.129Z,11.33
2023-04-29T01:46:29.994Z,12.53
2023-04-29T01:49:37.627Z,13.17
2023-04-29T01:52:43.737Z,11.70
2023-04-29T01:55:49.012Z,12.50
2023-04-29T01:58:52.109Z,12.57
2023-04-29T02:01:56.641Z,12.93
2023-04-29T02:04:59.796Z,12.53
2023-04-29T02:08:03.202Z,13.90
2023-04-29T02:11:07.927Z,12.47
2023-04-29T02:14:12.588Z,13.27
2023-04-29T02:17:15.713Z,13.53
2023-04-29T02:20:19.110Z,14.13
2023-04-29T02:23:22.221Z,13.53
2023-04-29T02:26:27.079Z,14.67
2023-04-29T02:29:31.800Z,14.03
2023-04-29T02:32:35.746Z,13.70
2023-04-29T02:35:38.821Z,15.30
2023-04-29T02:38:41.912Z,15.33
2023-04-29T02:41:46.319Z,15.43
2023-04-29T02:44:49.702Z,15.63
2023-04-29T02:47:52.779Z,14.57
2023-04-29T02:50:55.794Z,15.63
2023-04-29T02:53:59.038Z,16.63
2023-04-29T02:57:03.552Z,17.37
2023-04-29T03:00:08.924Z,16.97
2023-04-29T03:03:12.271Z,17.30
2023-04-29T03:06:15.991Z,16.70
2023-04-29T03:09:19.029Z,18.47
2023-04-29T03:12:23.916Z,17.67
2023-04-29T03:15:27.255Z,18.30
2023-04-29T03:18:30.362Z,17.70
2023-04-29T03:21:33.742Z,19.57
2023-04-29T03:24:39.220Z,17.30
2023-04-29T03:27:43.813Z,17.70
2023-04-29T03:30:46.924Z,17.63
2023-04-29T03:33:50.913Z,18.33
2023-04-29T03:36:54.145Z,18.77
2023-04-29T03:39:57.810Z,17.17
2023-04-29T03:43:02.580Z,19.97
2023-04-29T03:46:05.700Z,17.83
2023-04-29T03:49:08.996Z,18.87
2023-04-29T03:52:12.600Z,21.43
2023-04-29T03:55:15.702Z,20.27
2023-04-29T03:58:20.146Z,19.63
2023-04-29T04:01:23.472Z,18.37
2023-04-29T04:04:27.030Z,18.47
2023-04-29T04:07:30.311Z,21.30
2023-04-29T04:10:34.064Z,18.07
2023-04-29T04:13:38.628Z,20.43
2023-04-29T04:16:41.760Z,22.47
2023-04-29T04:19:44.895Z,23.47
2023-04-29T04:22:47.997Z,21.43
2023-04-29T04:25:53.295Z,23.87
2023-04-29T04:28:57.702Z,24.63
2023-04-29T04:32:00.792Z,24.93
2023-04-29T04:35:03.850Z,23.63
2023-04-29T04:38:07.624Z,23.60
2023-04-29T04:41:10.941Z,25.53
2023-04-29T04:44:16.881Z,25.63
2023-04-29T04:47:20.138Z,25.97
2023-04-29T04:50:23.289Z,26.03
2023-04-29T04:53:26.359Z,27.30
2023-04-29T04:56:29.697Z,27.63
2023-04-29T04:59:34.954Z,26.20
2023-04-29T05:02:38.544Z,27.03
2023-04-29T05:05:41.732Z,28.23
2023-04-29T05:08:44.742Z,27.87
2023-04-29T05:11:48.027Z,28.03
2023-04-29T05:14:55.627Z,26.80
2023-04-29T05:17:58.674Z,25.13
2023-04-29T05:21:01.911Z,27.37
2023-04-29T05:24:06.133Z,26.50
2023-04-29T05:27:09.537Z,27.90
2023-04-29T05:30:14.342Z,27.80
2023-04-29T05:33:17.335Z,26.80
2023-04-29T05:36:20.569Z,26.93
2023-04-29T05:39:23.754Z,27.30
2023-04-29T05:42:27.443Z,26.53
2023-04-29T05:45:31.789Z,25.93
2023-04-29T05:48:34.901Z,26.00
2023-04-29T05:51:37.864Z,26.07
2023-04-29T05:54:41.516Z,24.33
2023-04-29T05:57:44.823Z,27.13
2023-04-29T06:00:49.797Z,26.43
2023-04-29T06:03:52.970Z,26.27
2023-04-29T06:06:58.045Z,27.67
2023-04-29T06:10:01.163Z,27.93
2023-04-29T06:13:04.307Z,27.40
2023-04-29T06:16:09.133Z,27.50
2023-04-29T06:19:12.912Z,26.83
2023-04-29T06:22:15.911Z,27.57
2023-04-29T06:25:19.083Z,26.23
2023-04-29T06:28:22.062Z,26.20
2023-04-29T06:31:26.461Z,23.13
2023-04-29T06:34:29.698Z,23.10
2023-04-29T06:37:32.690Z,23.17
2023-04-29T06:40:35.720Z,23.27
2023-04-29T06:43:38.943Z,23.60
2023-04-29T06:46:43.409Z,23.47
2023-04-29T06:49:46.642Z,22.50
2023-04-29T06:52:49.621Z,22.03
2023-04-29T06:55:52.881Z,23.03
2023-04-29T06:58:55.789Z,20.80
2023-04-29T07:02:00.136Z,20.10
2023-04-29T07:05:03.144Z,20.13
2023-04-29T07:08:06.586Z,19.40
2023-04-29T07:11:09.777Z,19.60
2023-04-29T07:14:12.869Z,19.60
2023-04-29T07:17:17.467Z,19.83
2023-04-29T07:20:22.557Z,20.20
2023-04-29T07:23:26.299Z,19.27
2023-04-29T07:26:29.690Z,18.17
2023-04-29T07:29:32.751Z,19.13
2023-04-29T07:32:37.248Z,18.63
2023-04-29T07:35:43.090Z,19.03
2023-04-29T07:38:47.230Z,18.00
2023-04-29T07:41:50.215Z,19.70
2023-04-29T07:44:53.396Z,20.23
2023-04-29T07:47:58.090Z,19.27
2023-04-29T07:51:03.935Z,18.63
2023-04-29T07:54:07.226Z,18.80
2023-04-29T07:57:10.261Z,18.40
2023-04-29T08:00:13.965Z,17.23
2023-04-29T08:03:19.487Z,17.17
2023-04-29T08:06:22.640Z,17.90
2023-04-29T08:09:25.838Z,15.50
2023-04-29T08:12:28.781Z,15.63
2023-04-29T08:15:36.350Z,14.10
2023-04-29T08:18:41.356Z,14.00
2023-04-29T08:21:44.689Z,14.73
2023-04-29T08:24:48.591Z,13.33
2023-04-29T08:27:51.556Z,13.77
2023-04-29T08:30:55.203Z,12.90
2023-04-29T08:33:59.707Z,14.60
2023-04-29T08:37:02.744Z,13.17
2023-04-29T08:40:06.547Z,14.30
2023-04-29T08:43:10.711Z,14.40
2023-04-29T08:46:14.371Z,15.10
2023-04-29T08:49:19.243Z,15.23
2023-04-29T08:52:22.466Z,16.03
2023-04-29T08:55:27.601Z,15.50
2023-04-29T08:58:35.208Z,15.30
2023-04-29T09:01:41.931Z,15.73
2023-04-29T09:04:50.812Z,16.37
2023-04-29T09:07:54.614Z,17.53
2023-04-29T09:10:58.534Z,18.00
2023-04-29T09:14:04.477Z,18.70
2023-04-29T09:17:07.753Z,19.90
2023-04-29T09:20:29.349Z,19.90
2023-04-29T09:23:38.750Z,19.80
2023-04-29T09:26:44.290Z,20.97
2023-04-29T09:30:02.326Z,21.70
2023-04-29T09:33:07.855Z,21.50
2023-04-29T09:36:12.396Z,23.73
2023-04-29T09:39:17.753Z,21.83
2023-04-29T09:42:21.058Z,22.80
2023-04-29T09:45:37.558Z,25.63
2023-04-29T09:48:40.689Z,24.30
2023-04-29T09:51:54.791Z,26.30
2023-04-29T09:55:07.168Z,26.90
2023-04-29T09:58:10.213Z,27.60
2023-04-29T10:01:14.354Z,29.03
2023-04-29T10:04:19.280Z,30.87
2023-04-29T10:07:24.235Z,28.90
2023-04-29T10:10:30.335Z,30.67
2023-04-29T10:13:38.218Z,32.53
2023-04-29T10:16:47.797Z,33.83
2023-04-29T10:19:58.723Z,35.93
2023-04-29T10:23:05.057Z,36.57
2023-04-29T10:26:12.733Z,38.23
2023-04-29T10:29:18.306Z,38.27
2023-04-29T10:32:23.915Z,36.70
2023-04-29T10:35:27.404Z,39.00
2023-04-29T10:38:37.355Z,35.97
2023-04-29T10:41:47.955Z,35.63
2023-04-29T10:45:19.569Z,35.23
2023-04-29T10:48:24.768Z,32.90
2023-04-29T10:51:33.050Z,32.97
2023-04-29T10:54:37.529Z,32.37
2023-04-29T10:57:40.764Z,33.10
2023-04-29T11:00:43.840Z,30.40
2023-04-29T11:03:56.392Z,29.93
2023-04-29T11:07:01.093Z,29.07
2023-04-29T11:10:06.308Z,28.50
2023-04-29T11:13:22.885Z,26.77
2023-04-29T11:16:29.468Z,25.60
2023-04-29T11:19:34.101Z,24.77
2023-04-29T11:22:37.140Z,25.20
2023-04-29T11:25:41.711Z,24.03
2023-04-29T11:28:45.133Z,22.90
2023-04-29T11:31:48.541Z,24.33
2023-04-29T11:34:51.769Z,22.37
2023-04-29T11:37:55.048Z,22.33
2023-04-29T11:41:01.266Z,22.30
2023-04-29T11:44:06.374Z,21.80
2023-04-29T11:47:09.396Z,21.20
2023-04-29T11:50:13.136Z,21.90
2023-04-29T11:53:16.291Z,21.07
2023-04-29T11:56:22.992Z,20.83
2023-04-29T11:59:27.507Z,18.37
2023-04-29T12:02:32.647Z,18.00
2023-04-29T12:05:35.909Z,16.73
2023-04-29T12:08:39.117Z,16.17
2023-04-29T12:11:44.268Z,16.60
2023-04-29T12:14:47.740Z,16.80
2023-04-29T12:17:51.565Z,16.13
2023-04-29T12:20:56.004Z,16.00
2023-04-29T12:24:01.871Z,15.87
2023-04-29T12:27:09.601Z,15.50
2023-04-29T12:30:13.237Z,15.43
2023-04-29T12:33:23.788Z,16.97
2023-04-29T12:36:27.088Z,16.20
2023-04-29T12:39:31.590Z,16.03
2023-04-29T12:42:36.178Z,15.50
2023-04-29T12:45:40.787Z,15.50
2023-04-29T12:48:44.593Z,14.93
2023-04-29T12:51:48.395Z,13.63
2023-04-29T12:54:51.799Z,12.17
2023-04-29T12:57:58.046Z,11.77
2023-04-29T13:01:02.259Z,11.43
2023-04-29T13:04:06.583Z,10.63
2023-04-29T13:07:10.072Z,8.87
2023-04-29T13:10:13.821Z,9.13
2023-04-29T13:13:18.419Z,8.67
2023-04-29T13:16:22.387Z,8.13
2023-04-29T13:19:43.478Z,8.20
2023-04-29T13:22:49.483Z,8.00
2023-04-29T13:25:52.617Z,7.73
2023-04-29T13:28:57.050Z,7.90
2023-04-29T13:32:06.201Z,7.03
2023-04-29T13:35:10.179Z,7.67
2023-04-29T13:38:13.388Z,7.10
2023-04-29T13:41:17.016Z,7.13
2023-04-29T13:44:31.327Z,7.87
2023-04-29T13:48:03.001Z,7.23
2023-04-29T13:51:46.019Z,7.90
2023-04-29T14:03:49.934Z,9.13
2023-04-29T14:06:53.456Z,8.87
2023-04-29T14:09:56.421Z,9.80
2023-04-29T14:12:59.495Z,10.20
2023-04-29T14:16:06.672Z,10.13
2023-04-29T14:19:09.922Z,9.93
2023-04-29T14:22:12.902Z,10.37
2023-04-29T14:25:15.988Z,9.90
2023-04-29T14:28:19.179Z,10.17
2023-04-29T14:31:24.372Z,9.57
2023-04-29T14:34:27.487Z,10.47
2023-04-29T14:37:30.450Z,9.87
2023-04-29T14:40:33.470Z,10.03
2023-04-29T14:43:36.985Z,9.53
2023-04-29T14:46:42.172Z,9.43
2023-04-29T14:49:45.274Z,9.80
2023-04-29T14:52:48.582Z,9.07
2023-04-29T14:55:51.889Z,9.67
2023-04-29T14:58:56.013Z,8.67
2023-04-29T15:02:00.666Z,7.70
2023-04-29T15:05:04.176Z,9.07
2023-04-29T15:08:08.403Z,8.33
2023-04-29T15:11:11.464Z,9.23
2023-04-29T15:14:14.460Z,8.37
2023-04-29T15:17:18.798Z,8.27
2023-04-29T15:20:21.917Z,7.60
2023-04-29T15:23:25.794Z,6.80
2023-04-29T15:26:28.803Z,7.83
2023-04-29T15:29:32.658Z,7.50
2023-04-29T15:32:37.255Z,7.23
2023-04-29T15:35:40.481Z,6.80
2023-04-29T15:38:43.691Z,7.30
2023-04-29T15:41:46.810Z,7.07
2023-04-29T15:44:52.351Z,6.07
2023-04-29T15:47:56.774Z,7.40
2023-04-29T15:50:59.792Z,6.83
2023-04-29T15:54:02.837Z,7.20
2023-04-29T15:57:06.468Z,6.70
2023-04-29T16:00:10.608Z,6.90
2023-04-29T16:03:15.220Z,6.93
2023-04-29T16:06:18.324Z,6.97
2023-04-29T16:09:21.609Z,6.93
2023-04-29T16:12:24.594Z,7.60
2023-04-29T16:15:29.021Z,7.77
2023-04-29T16:18:33.716Z,7.33
2023-04-29T16:21:36.692Z,8.07
2023-04-29T16:24:39.643Z,7.37
2023-04-29T16:27:42.742Z,7.77
2023-04-29T16:30:45.809Z,7.53
2023-04-29T16:33:50.540Z,7.83
2023-04-29T16:36:53.775Z,7.90
2023-04-29T16:39:57.073Z,7.60
2023-04-29T16:43:00.158Z,7.27
2023-04-29T16:46:06.284Z,7.30
2023-04-29T16:49:10.749Z,8.10
2023-04-29T16:52:14.460Z,7.37
2023-04-29T16:55:17.663Z,7.40
2023-04-29T16:58:20.815Z,7.63
2023-04-29T17:01:24.160Z,6.40
2023-04-29T17:04:29.144Z,7.13
2023-04-29T17:07:33.355Z,7.83
2023-04-29T17:10:36.371Z,7.80
2023-04-29T17:13:39.396Z,5.80
2023-04-29T17:16:42.364Z,6.07
2023-04-29T17:19:50.007Z,5.23
2023-04-29T17:22:53.148Z,5.13
2023-04-29T17:25:58.425Z,5.40
2023-04-29T17:29:01.496Z,5.50
2023-04-29T17:32:10.866Z,6.13
2023-04-29T17:35:15.323Z,5.73
2023-04-29T17:38:18.338Z,5.27
2023-04-29T17:41:21.353Z,5.77
2023-04-29T17:44:24.421Z,5.20
2023-04-29T17:47:27.570Z,4.87
2023-04-29T17:50:31.982Z,5.00
2023-04-29T17:53:35.084Z,5.07
2023-04-29T17:56:38.140Z,4.30
2023-04-29T17:59:41.391Z,4.57
2023-04-29T18:02:45.510Z,4.60
2023-04-29T18:05:50.055Z,4.60
2023-04-29T18:08:53.240Z,4.60
2023-04-29T18:11:56.374Z,4.33
2023-04-29T18:14:59.458Z,5.00
2023-04-29T18:18:03.577Z,4.40
2023-04-29T18:21:08.112Z,4.53
2023-04-29T18:24:11.349Z,4.53
2023-04-29T18:27:14.546Z,4.80
2023-04-29T18:30:19.420Z,4.20
2023-04-29T18:33:23.410Z,4.37
2023-04-29T18:36:28.066Z,4.53
2023-04-29T18:39:31.289Z,4.93
2023-04-29T18:42:34.566Z,4.40
2023-04-29T18:45:38.807Z,4.20
2023-04-29T18:48:41.951Z,5.10
2023-04-29T18:51:47.581Z,4.70
2023-04-29T18:54:50.627Z,4.57
2023-04-29T18:57:53.753Z,4.83
2023-04-29T19:00:57.913Z,4.53
2023-04-29T19:04:04.392Z,5.43
2023-04-29T19:07:08.928Z,5.00
2023-04-29T19:10:12.159Z,5.27
2023-04-29T19:13:16.262Z,4.80
2023-04-29T19:16:19.564Z,4.70
2023-04-29T19:19:22.676Z,5.53
2023-04-29T19:22:27.820Z,5.50
2023-04-29T19:25:31.943Z,5.50
2023-04-29T19:28:36.433Z,4.70
2023-04-29T19:31:39.726Z,4.80
2023-04-29T19:34:42.890Z,4.70
2023-04-29T19:37:47.527Z,5.00
2023-04-29T19:40:50.799Z,4.90
2023-04-29T19:43:54.017Z,4.97
2023-04-29T19:46:57.096Z,4.53
2023-04-29T19:50:00.343Z,4.90
2023-04-29T19:53:05.393Z,4.80
2023-04-29T19:56:08.604Z,5.10
2023-04-29T19:59:13.269Z,4.60
2023-04-29T20:02:16.503Z,4.57
2023-04-29T20:05:19.930Z,5.33
2023-04-29T20:08:24.842Z,5.33
2023-04-29T20:11:28.273Z,4.90
2023-04-29T20:14:32.834Z,5.47
2023-04-29T20:17:37.485Z,5.40
2023-04-29T20:20:40.748Z,5.70
2023-04-29T20:23:45.543Z,5.67
2023-04-29T20:26:48.750Z,6.17
2023-04-29T20:29:51.889Z,6.10
2023-04-29T20:32:57.746Z,6.03
2023-04-29T20:36:06.295Z,7.10
2023-04-29T20:39:10.886Z,6.90
2023-04-29T20:42:13.981Z,6.63
2023-04-29T20:45:17.002Z,6.03
2023-04-29T20:48:20.123Z,6.63
2023-04-29T20:51:23.546Z,7.03
2023-04-29T20:54:28.044Z,6.37
2023-04-29T20:57:32.469Z,6.20
2023-04-29T21:00:35.564Z,6.57
2023-04-29T21:03:38.590Z,6.70
2023-04-29T21:06:41.708Z,6.67
2023-04-29T21:09:48.547Z,7.30
2023-04-29T21:12:55.302Z,7.23
2023-04-29T21:15:58.344Z,7.73
2023-04-29T21:19:01.684Z,7.10
2023-04-29T21:22:05.081Z,7.23
2023-04-29T21:25:10.142Z,7.63
2023-04-29T21:28:15.478Z,7.87
2023-04-29T21:31:19.881Z,7.77
2023-04-29T21:34:23.052Z,7.43
2023-04-29T21:37:26.280Z,7.67
2023-04-29T21:40:30.919Z,7.47
2023-04-29T21:43:34.649Z,6.73
2023-04-29T21:46:38.542Z,6.80
2023-04-29T21:49:41.795Z,6.60
2023-04-29T21:52:44.820Z,5.90
2023-04-29T21:55:49.577Z,6.20
2023-04-29T21:58:53.463Z,5.97
2023-04-29T22:02:00.601Z,6.67
2023-04-29T22:05:04.008Z,5.23
2023-04-29T22:08:08.361Z,5.90
2023-04-29T22:11:13.330Z,5.90
2023-04-29T22:14:16.682Z,5.87
2023-04-29T22:17:19.760Z,5.47
2023-04-29T22:20:23.109Z,6.40
2023-04-29T22:23:26.235Z,5.20
2023-04-29T22:26:31.088Z,5.93
2023-04-29T22:29:35.548Z,5.53
2023-04-29T22:32:38.629Z,5.30
2023-04-29T22:35:41.614Z,5.40
2023-04-29T22:38:44.683Z,5.30
2023-04-29T22:41:49.065Z,5.53
2023-04-29T22:44:52.110Z,5.67
2023-04-29T22:47:55.539Z,5.40
2023-04-29T22:51:00.958Z,5.47
2023-04-29T22:54:04.234Z,5.13
2023-04-29T22:57:11.298Z,5.20
2023-04-29T23:00:17.338Z,5.27
2023-04-29T23:03:20.644Z,5.20
2023-04-29T23:06:23.930Z,4.50
2023-04-29T23:09:27.125Z,4.33
2023-04-29T23:12:31.689Z,4.77
2023-04-29T23:15:34.786Z,4.33
2023-04-29T23:18:38.066Z,4.67
2023-04-29T23:21:41.125Z,4.40
2023-04-29T23:24:44.263Z,4.73
2023-04-29T23:27:48.916Z,4.57
2023-04-29T23:30:51.940Z,4.50
2023-04-29T23:33:54.943Z,4.50
2023-04-29T23:36:57.908Z,4.27
2023-04-29T23:40:01.241Z,4.33
2023-04-29T23:43:05.856Z,4.30
2023-04-29T23:46:08.957Z,4.70
2023-04-29T23:49:12.000Z,4.63
2023-04-29T23:52:15.123Z,5.03
2023-04-29T23:55:18.304Z,4.20
2023-04-29T23:58:24.162Z,4.47
